sensor_id;sensor_type;location;lat;lon;timestamp;pressure;altitude;pressure_sealevel;temperature;humidity
14689;BME280;7432;48.728;9.154;2023-02-15T00:01:17;97851.00;;;0.14;98.48
14689;BME280;7432;48.728;9.154;2023-02-15T00:03:47;97837.13;;;0.02;98.63
14689;BME280;7432;48.728;9.154;2023-02-15T00:06:13;97831.38;;;-0.02;99.02
14689;BME280;7432;48.728;9.154;2023-02-15T00:08:40;97827.50;;;-0.10;99.24
14689;BME280;7432;48.728;9.154;2023-02-15T00:11:07;97824.84;;;-0.07;99.51
14689;BME280;7432;48.728;9.154;2023-02-15T00:13:35;97828.94;;;-0.05;99.73
14689;BME280;7432;48.728;9.154;2023-02-15T00:16:05;97813.13;;;-0.10;99.38
14689;BME280;7432;48.728;9.154;2023-02-15T00:18:31;97828.91;;;-0.03;99.69
14689;BME280;7432;48.728;9.154;2023-02-15T00:21:03;97817.25;;;-0.07;99.44
14689;BME280;7432;48.728;9.154;2023-02-15T00:23:30;97813.22;;;-0.11;99.67
14689;BME280;7432;48.728;9.154;2023-02-15T00:26:03;97816.50;;;-0.09;99.89
14689;BME280;7432;48.728;9.154;2023-02-15T00:28:30;97807.19;;;-0.09;99.73
14689;BME280;7432;48.728;9.154;2023-02-15T00:31:02;97816.41;;;-0.08;99.94
14689;BME280;7432;48.728;9.154;2023-02-15T00:33:29;97821.44;;;-0.06;99.54
14689;BME280;7432;48.728;9.154;2023-02-15T00:35:56;97817.50;;;-0.13;99.58
14689;BME280;7432;48.728;9.154;2023-02-15T00:38:23;97815.34;;;-0.02;99.29
14689;BME280;7432;48.728;9.154;2023-02-15T00:40:52;97807.94;;;-0.07;98.69
14689;BME280;7432;48.728;9.154;2023-02-15T00:43:18;97809.53;;;-0.04;98.72
14689;BME280;7432;48.728;9.154;2023-02-15T00:45:45;97805.47;;;-0.08;99.42
14689;BME280;7432;48.728;9.154;2023-02-15T00:48:11;97810.00;;;-0.16;99.39
14689;BME280;7432;48.728;9.154;2023-02-15T00:50:38;97795.91;;;-0.22;100.00
14689;BME280;7432;48.728;9.154;2023-02-15T00:53:04;97811.09;;;-0.22;100.00
14689;BME280;7432;48.728;9.154;2023-02-15T00:55:32;97813.44;;;-0.17;100.00
14689;BME280;7432;48.728;9.154;2023-02-15T00:57:58;97808.31;;;-0.16;99.81
14689;BME280;7432;48.728;9.154;2023-02-15T01:00:25;97817.50;;;-0.13;99.64
14689;BME280;7432;48.728;9.154;2023-02-15T01:02:51;97810.22;;;-0.21;99.86
14689;BME280;7432;48.728;9.154;2023-02-15T01:05:18;97804.19;;;-0.18;99.56
14689;BME280;7432;48.728;9.154;2023-02-15T01:07:44;97802.69;;;-0.22;99.03
14689;BME280;7432;48.728;9.154;2023-02-15T01:10:10;97806.72;;;-0.18;99.20
14689;BME280;7432;48.728;9.154;2023-02-15T01:12:38;97800.09;;;-0.21;99.65
14689;BME280;7432;48.728;9.154;2023-02-15T01:15:05;97799.38;;;-0.24;99.68
14689;BME280;7432;48.728;9.154;2023-02-15T01:17:32;97796.06;;;-0.25;99.36
14689;BME280;7432;48.728;9.154;2023-02-15T01:19:58;97800.56;;;-0.33;99.11
14689;BME280;7432;48.728;9.154;2023-02-15T01:22:25;97798.75;;;-0.29;99.71
14689;BME280;7432;48.728;9.154;2023-02-15T01:24:51;97803.09;;;-0.33;99.52
14689;BME280;7432;48.728;9.154;2023-02-15T01:27:18;97802.41;;;-0.36;99.72
14689;BME280;7432;48.728;9.154;2023-02-15T01:29:46;97798.47;;;-0.43;99.96
14689;BME280;7432;48.728;9.154;2023-02-15T01:32:13;97803.50;;;-0.42;99.85
14689;BME280;7432;48.728;9.154;2023-02-15T01:34:39;97802.59;;;-0.41;100.00
14689;BME280;7432;48.728;9.154;2023-02-15T01:37:06;97807.41;;;-0.35;99.57
14689;BME280;7432;48.728;9.154;2023-02-15T01:39:32;97809.78;;;-0.30;98.91
14689;BME280;7432;48.728;9.154;2023-02-15T01:41:58;97808.94;;;-0.31;99.22
14689;BME280;7432;48.728;9.154;2023-02-15T01:44:48;97804.72;;;-0.30;98.92
14689;BME280;7432;48.728;9.154;2023-02-15T01:47:18;97799.91;;;-0.36;99.11
14689;BME280;7432;48.728;9.154;2023-02-15T01:49:47;97800.97;;;-0.42;98.60
14689;BME280;7432;48.728;9.154;2023-02-15T01:52:16;97790.13;;;-0.45;99.13
14689;BME280;7432;48.728;9.154;2023-02-15T01:54:44;97789.41;;;-0.49;99.35
14689;BME280;7432;48.728;9.154;2023-02-15T01:57:16;97785.25;;;-0.50;99.36
14689;BME280;7432;48.728;9.154;2023-02-15T01:59:46;97768.09;;;-0.64;99.51
14689;BME280;7432;48.728;9.154;2023-02-15T02:02:17;97785.31;;;-0.51;100.00
14689;BME280;7432;48.728;9.154;2023-02-15T02:04:48;97783.41;;;-0.46;100.00
14689;BME280;7432;48.728;9.154;2023-02-15T02:07:17;97769.56;;;-0.58;99.47
14689;BME280;7432;48.728;9.154;2023-02-15T02:09:45;97786.13;;;-0.51;99.79
14689;BME280;7432;48.728;9.154;2023-02-15T02:12:12;97782.09;;;-0.55;100.00
14689;BME280;7432;48.728;9.154;2023-02-15T02:14:39;97785.31;;;-0.51;99.94
14689;BME280;7432;48.728;9.154;2023-02-15T02:17:11;97777.47;;;-0.45;100.00
14689;BME280;7432;48.728;9.154;2023-02-15T02:20:00;97769.06;;;-0.46;99.66
14689;BME280;7432;48.728;9.154;2023-02-15T02:22:57;97779.19;;;-0.46;99.14
14689;BME280;7432;48.728;9.154;2023-02-15T02:25:51;97771.06;;;-0.54;99.14
14689;BME280;7432;48.728;9.154;2023-02-15T02:31:31;97769.69;;;-0.61;99.84
14689;BME280;7432;48.728;9.154;2023-02-15T02:34:11;97767.16;;;-0.61;99.92
14689;BME280;7432;48.728;9.154;2023-02-15T02:36:43;97758.75;;;-0.62;99.94
14689;BME280;7432;48.728;9.154;2023-02-15T02:39:22;97763.09;;;-0.65;99.99
14689;BME280;7432;48.728;9.154;2023-02-15T02:41:56;97766.56;;;-0.68;100.00
14689;BME280;7432;48.728;9.154;2023-02-15T02:44:30;97759.09;;;-0.71;99.42
14689;BME280;7432;48.728;9.154;2023-02-15T02:47:03;97750.13;;;-0.78;99.87
14689;BME280;7432;48.728;9.154;2023-02-15T02:49:34;97757.34;;;-0.69;99.84
14689;BME280;7432;48.728;9.154;2023-02-15T02:52:05;97735.13;;;-0.82;99.83
14689;BME280;7432;48.728;9.154;2023-02-15T02:54:32;97758.97;;;-0.68;100.00
14689;BME280;7432;48.728;9.154;2023-02-15T02:57:03;97763.47;;;-0.74;99.74
14689;BME280;7432;48.728;9.154;2023-02-15T02:59:33;97762.78;;;-0.79;99.83
14689;BME280;7432;48.728;9.154;2023-02-15T03:02:05;97761.09;;;-0.79;100.00
14689;BME280;7432;48.728;9.154;2023-02-15T03:04:40;97759.50;;;-0.81;100.00
14689;BME280;7432;48.728;9.154;2023-02-15T03:07:11;97754.47;;;-0.81;100.00
14689;BME280;7432;48.728;9.154;2023-02-15T03:09:41;97754.31;;;-0.77;100.00
14689;BME280;7432;48.728;9.154;2023-02-15T03:12:11;97750.22;;;-0.81;99.70
14689;BME280;7432;48.728;9.154;2023-02-15T03:14:39;97753.34;;;-0.74;99.40
14689;BME280;7432;48.728;9.154;2023-02-15T03:17:07;97752.66;;;-0.78;99.36
14689;BME280;7432;48.728;9.154;2023-02-15T03:19:36;97752.75;;;-0.81;99.58
14689;BME280;7432;48.728;9.154;2023-02-15T03:22:07;97752.75;;;-0.81;99.56
14689;BME280;7432;48.728;9.154;2023-02-15T03:24:37;97758.41;;;-0.74;99.49
14689;BME280;7432;48.728;9.154;2023-02-15T03:27:12;97758.34;;;-0.73;99.09
14689;BME280;7432;48.728;9.154;2023-02-15T03:29:43;97752.75;;;-0.81;98.56
14689;BME280;7432;48.728;9.154;2023-02-15T03:32:12;97747.94;;;-0.87;98.83
14689;BME280;7432;48.728;9.154;2023-02-15T03:34:41;97740.31;;;-0.85;99.02
14689;BME280;7432;48.728;9.154;2023-02-15T03:37:13;97754.53;;;-0.83;99.03
14689;BME280;7432;48.728;9.154;2023-02-15T03:39:45;97749.41;;;-0.81;99.48
14689;BME280;7432;48.728;9.154;2023-02-15T03:42:16;97758.94;;;-0.88;99.56
14689;BME280;7432;48.728;9.154;2023-02-15T03:44:51;97760.66;;;-0.88;99.77
14689;BME280;7432;48.728;9.154;2023-02-15T03:47:23;97758.13;;;-0.88;99.95
14689;BME280;7432;48.728;9.154;2023-02-15T03:49:56;97758.94;;;-0.88;99.78
14689;BME280;7432;48.728;9.154;2023-02-15T03:52:27;97761.63;;;-0.92;99.64
14689;BME280;7432;48.728;9.154;2023-02-15T03:54:55;97753.59;;;-1.02;100.00
14689;BME280;7432;48.728;9.154;2023-02-15T03:57:24;97763.34;;;-0.93;99.89
14689;BME280;7432;48.728;9.154;2023-02-15T04:00:13;97755.88;;;-0.96;99.78
14689;BME280;7432;48.728;9.154;2023-02-15T04:03:19;97759.34;;;-0.98;100.00
14689;BME280;7432;48.728;9.154;2023-02-15T04:05:48;97751.59;;;-0.94;99.95
14689;BME280;7432;48.728;9.154;2023-02-15T04:08:16;97754.75;;;-0.89;100.00
14689;BME280;7432;48.728;9.154;2023-02-15T04:10:42;97758.47;;;-0.97;99.94
14689;BME280;7432;48.728;9.154;2023-02-15T04:13:17;97742.06;;;-1.09;99.97
14689;BME280;7432;48.728;9.154;2023-02-15T04:15:44;97754.34;;;-1.00;100.00
14689;BME280;7432;48.728;9.154;2023-02-15T04:18:28;97744.44;;;-1.04;99.68
14689;BME280;7432;48.728;9.154;2023-02-15T04:21:12;97752.88;;;-1.05;99.68
14689;BME280;7432;48.728;9.154;2023-02-15T04:23:57;97741.94;;;-1.06;99.50
14689;BME280;7432;48.728;9.154;2023-02-15T04:26:41;97754.66;;;-1.07;99.98
14689;BME280;7432;48.728;9.154;2023-02-15T04:29:07;97742.78;;;-1.05;99.86
14689;BME280;7432;48.728;9.154;2023-02-15T04:31:34;97747.72;;;-1.02;99.65
14689;BME280;7432;48.728;9.154;2023-02-15T04:34:00;97742.78;;;-1.05;99.59
14689;BME280;7432;48.728;9.154;2023-02-15T04:36:26;97750.22;;;-1.02;99.54
14689;BME280;7432;48.728;9.154;2023-02-15T04:38:53;97743.91;;;-1.12;99.80
14689;BME280;7432;48.728;9.154;2023-02-15T04:41:21;97748.75;;;-1.08;99.63
14689;BME280;7432;48.728;9.154;2023-02-15T04:43:47;97745.25;;;-1.04;99.22
14689;BME280;7432;48.728;9.154;2023-02-15T04:46:13;97737.66;;;-1.04;98.86
14689;BME280;7432;48.728;9.154;2023-02-15T04:48:40;97738.53;;;-1.05;99.03
14689;BME280;7432;48.728;9.154;2023-02-15T04:51:06;97729.38;;;-1.07;98.98
14689;BME280;7432;48.728;9.154;2023-02-15T04:53:34;97719.38;;;-1.10;99.04
14689;BME280;7432;48.728;9.154;2023-02-15T04:56:00;97725.69;;;-0.99;99.21
14689;BME280;7432;48.728;9.154;2023-02-15T04:58:28;97715.44;;;-0.96;98.73
14689;BME280;7432;48.728;9.154;2023-02-15T05:00:55;97709.88;;;-1.04;98.60
14689;BME280;7432;48.728;9.154;2023-02-15T05:03:22;97720.63;;;-0.99;98.59
14689;BME280;7432;48.728;9.154;2023-02-15T05:05:48;97712.22;;;-0.99;98.85
14689;BME280;7432;48.728;9.154;2023-02-15T05:08:14;97711.63;;;-1.06;98.85
14689;BME280;7432;48.728;9.154;2023-02-15T05:10:41;97716.13;;;-1.14;99.23
14689;BME280;7432;48.728;9.154;2023-02-15T05:13:07;97712.09;;;-1.18;99.40
14689;BME280;7432;48.728;9.154;2023-02-15T05:15:35;97724.47;;;-1.12;99.52
14689;BME280;7432;48.728;9.154;2023-02-15T05:18:02;97729.38;;;-1.07;99.12
14689;BME280;7432;48.728;9.154;2023-02-15T05:20:28;97725.41;;;-1.14;98.33
14689;BME280;7432;48.728;9.154;2023-02-15T05:22:54;97729.72;;;-1.16;98.33
14689;BME280;7432;48.728;9.154;2023-02-15T05:25:21;97719.16;;;-1.26;98.25
14689;BME280;7432;48.728;9.154;2023-02-15T05:28:07;97724.84;;;-1.21;98.36
14689;BME280;7432;48.728;9.154;2023-02-15T05:30:47;97725.28;;;-1.33;98.30
14689;BME280;7432;48.728;9.154;2023-02-15T05:33:14;97720.44;;;-1.38;98.78
14689;BME280;7432;48.728;9.154;2023-02-15T05:35:41;97725.25;;;-1.32;98.21
14689;BME280;7432;48.728;9.154;2023-02-15T05:38:07;97730.13;;;-1.27;98.10
14689;BME280;7432;48.728;9.154;2023-02-15T05:40:34;97729.19;;;-1.25;97.89
14689;BME280;7432;48.728;9.154;2023-02-15T05:43:00;97730.34;;;-1.33;98.42
14689;BME280;7432;48.728;9.154;2023-02-15T05:45:27;97727.25;;;-1.40;98.55
14689;BME280;7432;48.728;9.154;2023-02-15T05:47:54;97734.81;;;-1.40;98.28
14689;BME280;7432;48.728;9.154;2023-02-15T05:50:23;97737.56;;;-1.46;98.57
14689;BME280;7432;48.728;9.154;2023-02-15T05:52:49;97732.34;;;-1.41;98.35
14689;BME280;7432;48.728;9.154;2023-02-15T05:55:16;97721.41;;;-1.42;98.24
14689;BME280;7432;48.728;9.154;2023-02-15T05:57:43;97725.47;;;-1.38;97.77
14689;BME280;7432;48.728;9.154;2023-02-15T06:00:10;97728.22;;;-1.44;98.25
14689;BME280;7432;48.728;9.154;2023-02-15T06:02:38;97718.13;;;-1.44;98.00
14689;BME280;7432;48.728;9.154;2023-02-15T06:05:06;97728.03;;;-1.39;98.11
14689;BME280;7432;48.728;9.154;2023-02-15T06:07:33;97728.88;;;-1.39;98.29
14689;BME280;7432;48.728;9.154;2023-02-15T06:09:59;97733.06;;;-1.38;98.16
14689;BME280;7432;48.728;9.154;2023-02-15T06:12:26;97731.78;;;-1.49;98.47
14689;BME280;7432;48.728;9.154;2023-02-15T06:14:52;97736.81;;;-1.48;98.20
14689;BME280;7432;48.728;9.154;2023-02-15T06:17:18;97738.53;;;-1.50;98.14
14689;BME280;7432;48.728;9.154;2023-02-15T06:19:46;97740.91;;;-1.45;98.14
14689;BME280;7432;48.728;9.154;2023-02-15T06:22:14;97744.25;;;-1.45;98.20
14689;BME280;7432;48.728;9.154;2023-02-15T06:24:40;97739.19;;;-1.45;97.75
14689;BME280;7432;48.728;9.154;2023-02-15T06:27:08;97742.50;;;-1.43;97.84
14689;BME280;7432;48.728;9.154;2023-02-15T06:29:34;97753.47;;;-1.44;97.56
14689;BME280;7432;48.728;9.154;2023-02-15T06:32:01;97751.78;;;-1.43;97.74
14689;BME280;7432;48.728;9.154;2023-02-15T06:34:27;97750.00;;;-1.41;97.67
14689;BME280;7432;48.728;9.154;2023-02-15T06:36:54;97755.25;;;-1.46;97.65
14689;BME280;7432;48.728;9.154;2023-02-15T06:39:21;97756.06;;;-1.45;97.55
14689;BME280;7432;48.728;9.154;2023-02-15T06:41:48;97754.22;;;-1.42;97.51
14689;BME280;7432;48.728;9.154;2023-02-15T06:44:14;97756.84;;;-1.43;97.29
14689;BME280;7432;48.728;9.154;2023-02-15T06:46:40;97761.88;;;-1.43;96.99
14689;BME280;7432;48.728;9.154;2023-02-15T06:49:07;97758.31;;;-1.38;96.69
14689;BME280;7432;48.728;9.154;2023-02-15T06:51:33;97753.38;;;-1.41;96.79
14689;BME280;7432;48.728;9.154;2023-02-15T06:54:01;97753.28;;;-1.39;96.98
14689;BME280;7432;48.728;9.154;2023-02-15T06:56:29;97753.44;;;-1.42;97.23
14689;BME280;7432;48.728;9.154;2023-02-15T06:58:55;97754.13;;;-1.39;97.55
14689;BME280;7432;48.728;9.154;2023-02-15T07:01:22;97752.97;;;-1.30;97.23
14689;BME280;7432;48.728;9.154;2023-02-15T07:03:48;97757.09;;;-1.28;97.37
14689;BME280;7432;48.728;9.154;2023-02-15T07:06:15;97757.72;;;-1.23;96.88
14689;BME280;7432;48.728;9.154;2023-02-15T07:08:41;97752.47;;;-1.16;96.52
14689;BME280;7432;48.728;9.154;2023-02-15T07:11:08;97760.53;;;-1.07;96.36
14689;BME280;7432;48.728;9.154;2023-02-15T07:13:53;97763.16;;;-1.10;96.84
14689;BME280;7432;48.728;9.154;2023-02-15T07:16:20;97765.31;;;-1.01;96.77
14689;BME280;7432;48.728;9.154;2023-02-15T07:18:46;97760.81;;;-0.93;96.38
14689;BME280;7432;48.728;9.154;2023-02-15T07:21:13;97763.94;;;-0.86;96.45
14689;BME280;7432;48.728;9.154;2023-02-15T07:23:39;97766.13;;;-0.77;96.11
14689;BME280;7432;48.728;9.154;2023-02-15T07:26:06;97775.22;;;-0.73;96.13
14689;BME280;7432;48.728;9.154;2023-02-15T07:28:33;97772.25;;;-0.63;96.42
14689;BME280;7432;48.728;9.154;2023-02-15T07:31:02;97771.72;;;-0.49;96.38
14689;BME280;7432;48.728;9.154;2023-02-15T07:33:30;97767.94;;;-0.39;96.44
14689;BME280;7432;48.728;9.154;2023-02-15T07:35:58;97775.94;;;-0.28;95.60
14689;BME280;7432;48.728;9.154;2023-02-15T07:38:26;97771.94;;;-0.13;95.85
14689;BME280;7432;48.728;9.154;2023-02-15T07:40:57;97772.13;;;0.03;95.58
14689;BME280;7432;48.728;9.154;2023-02-15T07:43:24;97770.31;;;0.25;95.38
14689;BME280;7432;48.728;9.154;2023-02-15T07:45:50;97759.94;;;0.49;94.75
14689;BME280;7432;48.728;9.154;2023-02-15T07:48:18;97751.38;;;1.44;96.55
14689;BME280;7432;48.728;9.154;2023-02-15T07:50:44;97751.00;;;4.18;86.47
14689;BME280;7432;48.728;9.154;2023-02-15T07:53:11;97748.78;;;6.53;74.68
14689;BME280;7432;48.728;9.154;2023-02-15T07:55:37;97764.25;;;8.41;66.96
14689;BME280;7432;48.728;9.154;2023-02-15T07:58:03;97761.38;;;10.38;59.22
14689;BME280;7432;48.728;9.154;2023-02-15T08:00:30;97768.28;;;12.24;51.66
14689;BME280;7432;48.728;9.154;2023-02-15T08:03:18;97765.25;;;13.74;48.21
14689;BME280;7432;48.728;9.154;2023-02-15T08:05:44;97771.56;;;14.58;45.48
14689;BME280;7432;48.728;9.154;2023-02-15T08:08:12;97768.69;;;15.45;42.97
14689;BME280;7432;48.728;9.154;2023-02-15T08:10:57;97758.22;;;15.71;41.13
14689;BME280;7432;48.728;9.154;2023-02-15T08:13:38;97775.59;;;17.06;38.65
14689;BME280;7432;48.728;9.154;2023-02-15T08:16:19;97784.38;;;18.72;35.94
14689;BME280;7432;48.728;9.154;2023-02-15T08:18:46;97781.03;;;20.36;34.16
14689;BME280;7432;48.728;9.154;2023-02-15T08:21:13;97774.84;;;21.59;31.89
14689;BME280;7432;48.728;9.154;2023-02-15T08:23:39;97769.97;;;21.43;31.31
14689;BME280;7432;48.728;9.154;2023-02-15T08:26:06;97779.81;;;22.74;29.28
14689;BME280;7432;48.728;9.154;2023-02-15T08:28:32;97773.94;;;22.85;29.62
14689;BME280;7432;48.728;9.154;2023-02-15T08:31:04;97772.13;;;22.85;29.60
14689;BME280;7432;48.728;9.154;2023-02-15T08:33:30;97772.41;;;24.04;28.63
14689;BME280;7432;48.728;9.154;2023-02-15T08:36:02;97779.25;;;24.61;26.94
14689;BME280;7432;48.728;9.154;2023-02-15T08:38:28;97776.97;;;25.07;27.02
14689;BME280;7432;48.728;9.154;2023-02-15T08:40:55;97772.22;;;25.64;26.11
14689;BME280;7432;48.728;9.154;2023-02-15T08:43:21;97768.13;;;25.68;25.97
14689;BME280;7432;48.728;9.154;2023-02-15T08:45:47;97760.59;;;25.83;25.72
14689;BME280;7432;48.728;9.154;2023-02-15T08:48:14;97775.59;;;25.05;25.58
14689;BME280;7432;48.728;9.154;2023-02-15T08:50:40;97771.25;;;25.10;26.17
14689;BME280;7432;48.728;9.154;2023-02-15T08:53:08;97770.72;;;25.56;25.60
14689;BME280;7432;48.728;9.154;2023-02-15T08:55:34;97771.50;;;26.16;25.29
14689;BME280;7432;48.728;9.154;2023-02-15T08:58:01;97768.81;;;25.75;25.38
14689;BME280;7432;48.728;9.154;2023-02-15T09:00:27;97762.22;;;26.25;24.96
14689;BME280;7432;48.728;9.154;2023-02-15T09:02:54;97765.88;;;26.59;24.83
14689;BME280;7432;48.728;9.154;2023-02-15T09:05:20;97766.91;;;26.70;25.03
14689;BME280;7432;48.728;9.154;2023-02-15T09:07:46;97753.84;;;26.52;24.85
14689;BME280;7432;48.728;9.154;2023-02-15T09:10:14;97745.50;;;23.71;27.28
14689;BME280;7432;48.728;9.154;2023-02-15T09:12:41;97742.81;;;20.14;31.07
14689;BME280;7432;48.728;9.154;2023-02-15T09:15:08;97737.69;;;16.56;37.67
14689;BME280;7432;48.728;9.154;2023-02-15T09:17:34;97742.09;;;13.90;43.28
14689;BME280;7432;48.728;9.154;2023-02-15T09:20:00;97728.66;;;12.42;46.37
14689;BME280;7432;48.728;9.154;2023-02-15T09:22:27;97724.81;;;11.33;49.48
14689;BME280;7432;48.728;9.154;2023-02-15T09:24:55;97728.00;;;10.27;53.57
14689;BME280;7432;48.728;9.154;2023-02-15T09:27:22;97730.00;;;10.02;55.07
14689;BME280;7432;48.728;9.154;2023-02-15T09:29:49;97727.25;;;9.31;57.02
14689;BME280;7432;48.728;9.154;2023-02-15T09:32:15;97725.25;;;8.91;58.46
14689;BME280;7432;48.728;9.154;2023-02-15T09:34:42;97721.88;;;8.69;59.76
14689;BME280;7432;48.728;9.154;2023-02-15T09:37:09;97719.44;;;8.34;61.88
14689;BME280;7432;48.728;9.154;2023-02-15T09:39:37;97716.44;;;7.94;64.01
14689;BME280;7432;48.728;9.154;2023-02-15T09:42:27;97706.31;;;7.58;63.97
14689;BME280;7432;48.728;9.154;2023-02-15T09:48:01;97705.03;;;7.52;64.46
14689;BME280;7432;48.728;9.154;2023-02-15T09:50:37;97704.97;;;7.65;64.62
14689;BME280;7432;48.728;9.154;2023-02-15T09:53:23;97707.75;;;7.62;64.12
14689;BME280;7432;48.728;9.154;2023-02-15T09:56:00;97711.13;;;6.91;69.11
14689;BME280;7432;48.728;9.154;2023-02-15T09:58:38;97703.44;;;6.91;68.37
14689;BME280;7432;48.728;9.154;2023-02-15T10:01:10;97712.13;;;7.01;64.75
14689;BME280;7432;48.728;9.154;2023-02-15T10:03:54;97703.97;;;7.20;63.79
14689;BME280;7432;48.728;9.154;2023-02-15T10:06:34;97705.47;;;7.23;63.31
14689;BME280;7432;48.728;9.154;2023-02-15T10:09:24;97704.34;;;7.27;63.24
14689;BME280;7432;48.728;9.154;2023-02-15T10:12:14;97707.88;;;7.37;62.31
14689;BME280;7432;48.728;9.154;2023-02-15T10:14:56;97703.25;;;7.18;64.10
14689;BME280;7432;48.728;9.154;2023-02-15T10:17:38;97701.22;;;7.34;63.41
14689;BME280;7432;48.728;9.154;2023-02-15T10:20:16;97705.94;;;7.51;61.37
14689;BME280;7432;48.728;9.154;2023-02-15T10:22:57;97683.56;;;7.42;61.88
14689;BME280;7432;48.728;9.154;2023-02-15T10:25:34;97709.22;;;7.53;62.20
14689;BME280;7432;48.728;9.154;2023-02-15T10:28:06;97701.94;;;7.36;62.37
14689;BME280;7432;48.728;9.154;2023-02-15T10:30:41;97696.16;;;7.45;62.49
14689;BME280;7432;48.728;9.154;2023-02-15T10:33:17;97700.81;;;7.40;63.07
14689;BME280;7432;48.728;9.154;2023-02-15T10:35:55;97697.63;;;7.37;62.85
14689;BME280;7432;48.728;9.154;2023-02-15T10:38:34;97687.25;;;7.38;63.47
14689;BME280;7432;48.728;9.154;2023-02-15T10:41:12;97688.41;;;7.34;63.36
14689;BME280;7432;48.728;9.154;2023-02-15T10:43:56;97683.66;;;7.41;62.79
14689;BME280;7432;48.728;9.154;2023-02-15T10:46:39;97682.34;;;7.35;63.79
14689;BME280;7432;48.728;9.154;2023-02-15T10:49:22;97683.34;;;7.45;64.10
14689;BME280;7432;48.728;9.154;2023-02-15T10:52:02;97680.69;;;7.58;62.97
14689;BME280;7432;48.728;9.154;2023-02-15T10:54:38;97672.31;;;7.56;64.24
14689;BME280;7432;48.728;9.154;2023-02-15T10:57:14;97671.47;;;7.55;63.91
14689;BME280;7432;48.728;9.154;2023-02-15T10:59:57;97669.06;;;7.65;63.17
14689;BME280;7432;48.728;9.154;2023-02-15T11:02:40;97667.09;;;7.80;62.02
14689;BME280;7432;48.728;9.154;2023-02-15T11:05:25;97649.03;;;7.70;62.24
14689;BME280;7432;48.728;9.154;2023-02-15T11:07:54;97644.34;;;7.64;62.42
14689;BME280;7432;48.728;9.154;2023-02-15T11:10:29;97660.25;;;7.80;64.11
14689;BME280;7432;48.728;9.154;2023-02-15T11:12:58;97656.63;;;7.83;63.00
14689;BME280;7432;48.728;9.154;2023-02-15T11:15:31;97651.03;;;7.89;62.72
14689;BME280;7432;48.728;9.154;2023-02-15T11:18:05;97657.47;;;7.94;62.47
14689;BME280;7432;48.728;9.154;2023-02-15T11:20:37;97654.53;;;7.99;62.15
14689;BME280;7432;48.728;9.154;2023-02-15T11:23:12;97649.44;;;8.10;64.95
14689;BME280;7432;48.728;9.154;2023-02-15T11:25:43;97644.28;;;8.10;64.03
14689;BME280;7432;48.728;9.154;2023-02-15T11:28:17;97646.63;;;8.13;62.71
14689;BME280;7432;48.728;9.154;2023-02-15T11:30:48;97646.63;;;8.13;61.19
14689;BME280;7432;48.728;9.154;2023-02-15T11:33:21;97636.59;;;8.10;62.00
14689;BME280;7432;48.728;9.154;2023-02-15T11:35:51;97631.38;;;8.11;61.20
14689;BME280;7432;48.728;9.154;2023-02-15T11:38:21;97644.16;;;8.22;62.54
14689;BME280;7432;48.728;9.154;2023-02-15T11:40:50;97638.13;;;8.34;64.25
14689;BME280;7432;48.728;9.154;2023-02-15T11:43:23;97633.94;;;8.33;64.30
14689;BME280;7432;48.728;9.154;2023-02-15T11:45:52;97633.22;;;8.43;63.05
14689;BME280;7432;48.728;9.154;2023-02-15T11:48:21;97637.53;;;8.42;63.07
14689;BME280;7432;48.728;9.154;2023-02-15T11:50:47;97635.09;;;8.41;63.21
14689;BME280;7432;48.728;9.154;2023-02-15T11:53:15;97632.75;;;8.49;61.87
14689;BME280;7432;48.728;9.154;2023-02-15T11:55:43;97642.19;;;8.59;62.42
14689;BME280;7432;48.728;9.154;2023-02-15T11:58:18;97635.75;;;8.65;62.90
14689;BME280;7432;48.728;9.154;2023-02-15T12:00:49;97625.22;;;8.79;62.13
14689;BME280;7432;48.728;9.154;2023-02-15T12:03:22;97634.66;;;8.89;63.39
14689;BME280;7432;48.728;9.154;2023-02-15T12:05:56;97628.66;;;9.00;62.72
14689;BME280;7432;48.728;9.154;2023-02-15T12:08:23;97631.47;;;8.97;62.95
14689;BME280;7432;48.728;9.154;2023-02-15T12:10:58;97634.03;;;8.97;63.08
14689;BME280;7432;48.728;9.154;2023-02-15T12:13:26;97642.19;;;9.02;61.96
14689;BME280;7432;48.728;9.154;2023-02-15T12:15:54;97628.47;;;8.92;61.97
14689;BME280;7432;48.728;9.154;2023-02-15T12:18:34;97635.59;;;8.88;62.93
14689;BME280;7432;48.728;9.154;2023-02-15T12:21:04;97633.72;;;8.90;61.15
14689;BME280;7432;48.728;9.154;2023-02-15T12:23:32;97627.13;;;8.77;62.09
14689;BME280;7432;48.728;9.154;2023-02-15T12:25:59;97624.78;;;8.74;62.84
14689;BME280;7432;48.728;9.154;2023-02-15T12:28:30;97614.84;;;8.69;63.97
14689;BME280;7432;48.728;9.154;2023-02-15T12:30:59;97618.38;;;8.68;63.98
14689;BME280;7432;48.728;9.154;2023-02-15T12:33:29;97615.81;;;8.68;64.01
14689;BME280;7432;48.728;9.154;2023-02-15T12:35:59;97613.22;;;8.79;62.69
14689;BME280;7432;48.728;9.154;2023-02-15T12:38:28;97616.34;;;8.83;63.51
14689;BME280;7432;48.728;9.154;2023-02-15T12:40:59;97615.53;;;8.82;62.54
14689;BME280;7432;48.728;9.154;2023-02-15T12:43:27;97614.00;;;8.80;63.25
14689;BME280;7432;48.728;9.154;2023-02-15T12:46:13;97625.22;;;8.79;63.93
14689;BME280;7432;48.728;9.154;2023-02-15T12:48:42;97613.22;;;8.79;62.69
14689;BME280;7432;48.728;9.154;2023-02-15T12:51:12;97612.50;;;8.77;62.91
14689;BME280;7432;48.728;9.154;2023-02-15T12:53:39;97610.03;;;8.87;62.69
14689;BME280;7432;48.728;9.154;2023-02-15T12:56:08;97604.22;;;8.85;61.86
14689;BME280;7432;48.728;9.154;2023-02-15T12:58:36;97594.72;;;8.85;61.20
14689;BME280;7432;48.728;9.154;2023-02-15T13:01:10;97603.00;;;8.89;60.34
14689;BME280;7432;48.728;9.154;2023-02-15T13:03:38;97597.06;;;8.88;60.63
14689;BME280;7432;48.728;9.154;2023-02-15T13:06:07;97586.63;;;9.01;60.90
14689;BME280;7432;48.728;9.154;2023-02-15T13:08:36;97588.19;;;8.92;60.82
14689;BME280;7432;48.728;9.154;2023-02-15T13:11:07;97585.22;;;8.97;61.41
14689;BME280;7432;48.728;9.154;2023-02-15T13:13:37;97584.41;;;8.97;60.92
14689;BME280;7432;48.728;9.154;2023-02-15T13:16:13;97583.53;;;9.07;59.33
14689;BME280;7432;48.728;9.154;2023-02-15T13:18:44;97571.53;;;9.08;60.16
14689;BME280;7432;48.728;9.154;2023-02-15T13:21:14;97558.44;;;9.11;59.71
14689;BME280;7432;48.728;9.154;2023-02-15T13:23:44;97564.06;;;9.05;61.73
14689;BME280;7432;48.728;9.154;2023-02-15T13:26:17;97559.53;;;8.97;62.00
14689;BME280;7432;48.728;9.154;2023-02-15T13:28:46;97560.69;;;9.04;60.34
14689;BME280;7432;48.728;9.154;2023-02-15T13:31:15;97565.06;;;9.13;60.47
14689;BME280;7432;48.728;9.154;2023-02-15T13:33:44;97565.50;;;9.18;60.15
14689;BME280;7432;48.728;9.154;2023-02-15T13:36:21;97561.19;;;9.19;59.35
14689;BME280;7432;48.728;9.154;2023-02-15T13:38:58;97554.97;;;9.21;59.67